Latest Coastal Weather Observations for Rhyll

IDV60701

Issued at 9:45 am EDT Saturday 29 November 2014 (issued every 10 minutes, with the page automatically refreshed every 10 minutes)

About coastal observations | Map of coastal stations | Coastal observations for VIC | Marine services | Other Formats
Station Details ID: 086373 Name: RHYLL Lat: -38.46 Lon: 145.31 Height: 13.4 m
Data from the previous 72 hours. | See also: Recent months at Rhyll
Date/Time
EDT
Temp

°C
Wind Pressure Rain
since 9am
mm
Weather Cloud Vis
km
Sea
Height
m
Swell
Dir
 
Speed
knots
Gust
knots
hPa Trend Height
m
Period
s
Dir
29/09:30am 15.1 NE 6 9 1017.8 - 0.0 - - - - - - -
29/09:00am 14.7 NE 7 9 1018.2 - 0.0 - - - - - - -
29/08:30am 14.0 NE 7 9 1018.2 - 0.0 - - - - - - -
29/08:00am 13.9 E 8 11 1018.1 - 0.0 - - - - - - -
29/07:30am 15.4 E 8 10 1018.0 - 0.0 - - - - - - -
29/07:00am 14.8 E 6 8 1018.0 - 0.0 - - - - - - -
29/06:30am 14.2 ESE 5 9 1017.9 - 0.0 - - - - - - -
29/06:00am 13.5 SSE 5 6 1017.8 - 0.0 - - - - - - -
29/05:30am 13.2 S 5 7 1017.7 - 0.0 - - - - - - -
29/05:00am 13.3 S 5 9 1017.5 - 0.0 - - - - - - -
29/04:30am 13.3 S 5 7 1017.1 - 0.0 - - - - - - -
29/04:00am 13.4 S 6 9 1017.4 - 0.0 - - - - - - -
29/03:30am 13.5 S 6 8 1017.3 - 0.0 - - - - - - -
29/03:00am 13.5 S 5 7 1017.5 - 0.0 - - - - - - -
29/02:30am 13.5 S 5 7 1017.8 - 0.0 - - - - - - -
29/02:00am 12.9 S 5 7 1017.9 - 0.0 - - - - - - -
29/01:30am 12.7 S 4 6 1018.1 - 0.0 - - - - - - -
29/01:00am 12.6 S 4 6 1018.5 - 0.0 - - - - - - -
29/12:30am 12.6 S 4 6 1019.1 - 0.0 - - - - - - -
29/12:00am 12.7 S 5 7 1019.5 - 0.0 - - - - - - -
 
Date/Time
EDT
Temp

°C
Wind Pressure Rain
since 9am
mm
Weather Cloud Vis
km
Sea
Height
m
Swell
Dir
 
Speed
knots
Gust
knots
hPa Trend Height
m
Period
s
Dir
28/11:30pm 12.8 S 5 7 1019.9 - 0.0 - - - - - - -
28/11:00pm 13.1 SSE 5 7 1020.3 - 0.0 - - - - - - -
28/10:30pm 13.7 SE 5 9 1020.7 - 0.0 - - - - - - -
28/10:00pm 13.8 SSE 7 11 1020.7 - 0.0 - - - - - - -
28/09:30pm 13.9 SSE 7 9 1020.5 - 0.0 - - - - - - -
28/09:00pm 13.8 SSE 8 12 1020.4 - 0.0 - - - - - - -
28/08:30pm 13.7 SSE 8 13 1020.3 - 0.0 - - - - - - -
28/08:00pm 14.3 SSE 9 12 1020.4 - 0.0 - - - - - - -
28/07:30pm 15.4 S 10 14 1020.5 - 0.0 - - - - - - -
28/07:00pm 16.3 S 9 13 1020.4 - 0.0 - - - - - - -
28/06:30pm 16.8 S 8 10 1020.2 - 0.0 - - - - - - -
28/06:00pm 17.4 S 6 11 1020.1 - 0.0 - - - - - - -
28/05:30pm 16.9 S 7 14 1020.4 - 0.0 - - - - - - -
28/05:00pm 18.3 S 5 9 1020.4 - 0.0 - - - - - - -
28/04:30pm 17.5 S 5 9 1020.5 - 0.0 - - - - - - -
28/04:00pm 17.7 S 5 9 1020.9 - 0.0 - - - - - - -
28/03:30pm 17.6 S 6 10 1021.2 - 0.0 - - - - - - -
28/03:00pm 18.1 S 6 10 1021.5 - 0.0 - - - - - - -
28/02:30pm 18.1 S 5 8 1021.7 - 0.0 - - - - - - -
28/02:00pm 18.5 S 5 10 1022.1 - 0.0 - - - - - - -
28/01:30pm 17.8 S 5 9 1022.5 - 0.0 - - - - - - -
28/01:00pm 17.3 S 6 11 1022.8 - 0.0 - - - - - - -
28/12:30pm 18.4 S 5 10 1023.1 - 0.0 - - - - - - -
28/12:00pm 17.4 S 6 11 1023.2 - 0.0 - - - - - - -
28/11:30am 18.0 SSE 4 6 1023.4 - 0.0 - - - - - - -
28/11:00am 17.3 NE 3 5 1023.5 - 0.0 - - - - - - -
28/10:30am 15.6 N 6 10 1023.8 - 0.0 - - - - - - -
28/10:00am 15.0 N 5 7 1024.2 - 0.0 - - - - - - -
28/09:30am 17.1 ENE 3 5 1024.1 - 0.0 - - - - - - -
28/09:00am 16.9 ESE 3 4 1024.2 - 0.0 - - - - - - -
28/08:30am 13.6 W 3 5 1024.2 - 0.0 - - - - - - -
28/08:00am 13.6 W 2 4 1024.3 - 0.0 - - - - - - -
28/07:30am 13.2 S 2 4 1024.0 - 0.0 - - - - - - -
28/07:00am 13.4 S 3 5 1023.8 - 0.0 - - - - - - -
28/06:30am 12.6 S 3 6 1023.4 - 0.0 - - - - - - -
28/06:00am 11.8 S 4 7 1023.1 - 0.0 - - - - - - -
28/05:30am 11.7 S 4 8 1022.8 - 0.0 - - - - - - -
28/05:00am 11.8 S 5 9 1022.5 - 0.0 - - - - - - -
28/04:30am 11.9 S 4 7 1022.4 - 0.0 - - - - - - -
28/04:00am 12.1 S 5 8 1022.5 - 0.0 - - - - - - -
28/03:30am 11.7 S 5 7 1022.5 - 0.0 - - - - - - -
28/03:00am 11.7 SSE 5 9 1022.5 - 0.0 - - - - - - -
28/02:30am 11.4 SSE 4 7 1022.8 - 0.0 - - - - - - -
28/02:00am 11.5 S 3 6 1023.2 - 0.0 - - - - - - -
28/01:30am 12.2 SE 3 6 1023.4 - 0.0 - - - - - - -
28/01:00am 12.2 SSE 4 7 1023.7 - 0.0 - - - - - - -
28/12:30am 12.4 SSE 3 5 1024.2 - 0.0 - - - - - - -
28/12:00am 12.0 SSE 4 7 1024.4 - 0.0 - - - - - - -
 
Date/Time
EDT
Temp

°C
Wind Pressure Rain
since 9am
mm
Weather Cloud Vis
km
Sea
Height
m
Swell
Dir
 
Speed
knots
Gust
knots
hPa Trend Height
m
Period
s
Dir
27/11:30pm 12.1 S 4 6 1024.4 - 0.0 - - - - - - -
27/11:00pm 12.2 S 5 8 1024.5 - 0.0 - - - - - - -
27/10:30pm 11.7 S 5 7 1024.8 - 0.0 - - - - - - -
27/10:00pm 11.9 S 5 7 1024.8 - 0.0 - - - - - - -
27/09:30pm 12.4 S 6 10 1024.8 - 0.0 - - - - - - -
27/09:00pm 12.4 S 6 11 1024.5 - 0.0 - - - - - - -
27/08:30pm 12.8 S 6 10 1024.7 - 0.0 - - - - - - -
27/08:00pm 13.3 S 6 9 1024.7 - 0.0 - - - - - - -
27/07:30pm 14.5 S 6 11 1024.8 - 0.0 - - - - - - -
27/07:00pm 14.6 S 7 14 1024.8 - 0.0 - - - - - - -
27/06:30pm 15.8 S 6 9 1024.8 - 0.0 - - - - - - -
27/06:00pm 16.1 S 6 10 1024.8 - 0.0 - - - - - - -
27/05:30pm 16.2 S 6 10 1024.9 - 0.0 - - - - - - -
27/05:00pm 16.5 S 6 10 1025.1 - 0.0 - - - - - - -
27/04:30pm 16.1 S 6 10 1025.0 - 0.0 - - - - - - -
27/04:00pm 16.4 S 7 13 1025.3 - 0.0 - - - - - - -
27/03:30pm 16.8 S 7 10 1025.6 - 0.0 - - - - - - -
27/03:00pm 17.6 S 6 12 1025.6 - 0.0 - - - - - - -
27/02:30pm 17.6 S 6 12 1025.6 - 0.0 - - - - - - -
27/02:00pm 16.9 S 6 10 1025.8 - 0.0 - - - - - - -
27/01:30pm 16.4 S 7 13 1026.0 - 0.0 - - - - - - -
27/01:00pm 16.6 S 6 10 1026.1 - 0.0 - - - - - - -
27/12:30pm 16.6 S 6 11 1026.2 - 0.0 - - - - - - -
27/12:00pm 17.4 S 6 9 1026.4 - 0.0 - - - - - - -
27/11:30am 17.1 S 6 10 1026.4 - 0.0 - - - - - - -
27/11:00am 15.1 S 6 12 1026.6 - 0.0 - - - - - - -
27/10:30am 15.8 S 5 7 1026.7 - 0.0 - - - - - - -
27/10:00am 14.5 S 5 9 1026.6 - 0.0 - - - - - - -
27/09:30am 15.0 S 4 7 1026.5 - 0.0 - - - - - - -
27/09:00am 13.9 SSW 5 8 1026.5 - 0.4 - - - - - - -
27/08:30am 13.3 SSW 6 11 1026.4 - 0.4 - - - - - - -
27/08:00am 13.1 S 6 13 1026.1 - 0.4 - - - - - - -
27/07:30am 13.1 SSW 6 11 1025.7 - 0.4 - - - - - - -
27/07:00am 13.1 S 6 9 1025.4 - 0.4 - - - - - - -
27/06:30am 12.8 S 3 6 1025.1 - 0.4 - - - - - - -
27/06:00am 12.7 S 6 10 1024.9 - 0.4 - - - - - - -
27/05:30am 13.0 S 7 12 1024.4 - 0.4 - - - - - - -
27/05:00am 13.0 S 5 10 1024.0 - 0.4 - - - - - - -
27/04:30am 12.9 S 7 14 1023.8 - 0.4 - - - - - - -
27/04:00am 12.9 S 6 12 1023.7 - 0.4 - - - - - - -
27/03:30am 13.2 S 7 12 1023.7 - 0.4 - - - - - - -
27/03:00am 13.1 SSW 5 11 1023.8 - 0.4 - - - - - - -
27/02:30am 13.1 S 5 8 1023.9 - 0.4 - - - - - - -
27/02:00am 12.8 S 5 8 1024.1 - 0.4 - - - - - - -
27/01:30am 12.9 SSW 5 10 1024.3 - 0.4 - - - - - - -
27/01:00am 13.0 S 5 10 1024.4 - 0.4 - - - - - - -
27/12:30am 13.0 SSW 3 6 1024.6 - 0.4 - - - - - - -
27/12:00am 13.2 SSW 6 10 1024.7 - 0.4 - - - - - - -
 
Date/Time
EDT
Temp

°C
Wind Pressure Rain
since 9am
mm
Weather Cloud Vis
km
Sea
Height
m
Swell
Dir
 
Speed
knots
Gust
knots
hPa Trend Height
m
Period
s
Dir
26/11:30pm 13.4 SSW 5 10 1024.6 - 0.4 - - - - - - -
26/11:00pm 13.5 SSW 5 9 1024.6 - 0.4 - - - - - - -
26/10:30pm 13.6 SSW 5 10 1024.4 - 0.4 - - - - - - -
26/10:00pm 13.6 SSW 5 10 1024.2 - 0.4 - - - - - - -
26/09:30pm 13.6 S 6 11 1023.9 - 0.4 - - - - - - -
26/09:00pm 13.7 S 6 11 1023.6 - 0.4 - - - - - - -
26/08:30pm 13.7 SW 6 9 1023.4 - 0.4 - - - - - - -
26/08:00pm 14.0 SW 7 12 1023.3 - 0.4 - - - - - - -
26/07:30pm 14.4 SSW 6 12 1023.2 - 0.4 - - - - - - -
26/07:00pm 15.4 S 6 11 1022.8 - 0.4 - - - - - - -
26/06:30pm 15.7 S 6 14 1022.3 - 0.4 - - - - - - -
26/06:00pm 16.1 SW 9 17 1022.2 - 0.4 - - - - - - -
26/05:30pm 16.1 SW 9 16 1022.1 - 0.4 - - - - - - -
26/05:00pm 16.1 SW 8 15 1022.0 - 0.4 - - - - - - -
26/04:30pm 16.4 SW 10 15 1022.0 - 0.4 - - - - - - -
26/04:00pm 17.0 SW 10 16 1021.9 - 0.4 - - - - - - -
26/03:30pm 17.0 SW 9 14 1021.8 - 0.4 - - - - - - -
26/03:00pm 16.2 SSW 8 13 1021.8 - 0.4 - - - - - - -
26/02:30pm 16.2 SSW 8 13 1021.8 - 0.4 - - - - - - -
26/02:00pm 14.9 SW 7 13 1021.8 - 0.4 - - - - - - -
26/01:30pm 15.1 SW 9 15 1021.6 - 0.2 - - - - - - -
26/01:00pm 15.7 W 9 16 1021.6 - 0.0 - - - - - - -
26/12:30pm 16.0 W 10 18 1021.5 - 0.0 - - - - - - -
26/12:00pm 16.6 W 9 15 1021.4 - 0.0 - - - - - - -
26/11:30am 16.5 WSW 7 12 1021.3 - 0.0 - - - - - - -
26/11:00am 16.1 W 5 9 1021.1 - 0.0 - - - - - - -
26/10:30am 16.0 WNW 5 10 1021.2 - 0.0 - - - - - - -
26/10:00am 15.7 W 5 10 1021.2 - 0.0 - - - - - - -

Other Formats:

Comma delimited format used in spreadsheet applications
http://www.bom.gov.au/fwo/IDV60701/IDV60701.94892.axf

JavaScript Object Notation format (JSON) in row-major order
http://www.bom.gov.au/fwo/IDV60701/IDV60701.94892.json